Weather at Bromont (Roland Desourdy) Airport

Public forecast

Using degrees Celsius for public forecast. Weather courtesy of forecast.io.

Closest aviation weather report (METAR) to Bromont (Roland Desourdy) Airport

Closest report is Franklin County State Airport, 25.9 nm (48.0 km) SW. Retrieved 2020/11/27 22:35 UTC (0 seconds ago):

KFSO 272235Z AUTO 18003KT 10SM OVC049 06/04 A3000 RMK AO2 T00600039

Closest aviation forecast (TAF) to Bromont (Roland Desourdy) Airport

Closest forecast is MontrĂ©al / Saint-Hubert Airport, 31.6 nm (58.5 km) WNW. Retrieved 2020/11/27 18:42 UTC (4 hours ago):

TAF CYHU 271738Z 2718/2818 25006KT P6SM BKN050 TEMPO 2801/2804 BKN015 OVC050 PROB30 2802/2804 5SM -SHRA BR OVC008 FM280400 VRB03KT 4SM -SHRA BR OVC008 PROB30 2804/2809 2SM -DZ BR BKN003 OVC008 FM280900 27007KT 4SM -DZ BR BKN006 OVC030 FM281600 25012KT P6SM OVC015 TEMPO 2816/2818 P6SM -SHRA RMK FCST BASED ON AUTO OBS NXT FCST BY 280000Z